Gaz Palmyra — 3FCO4 — position and weather

sailwx.info

Track history (hours):
 
Tides and Currents Weather Stations Pressure Air Temp Water Temp Dewpoint Dewpoint Depression Visibility Wind Speed Wind Dir Waves Ship Positions

Gaz Palmyra

Last reported at 2014-Jul-24 19:32 UTC. Time now 2014-Jul-24 20:06 UTC.
Position N 36°46' E 003°06'.

Length 137 m; draft 8.1 m.

Type: Ship (hazmat cat C). MMSI: 353247000.

Date/timePositionNaut miles runAvg speedWind from/ knotsBaromVisibWave heightAir tempDewpointWater temp
2014-Jul-24 19:32N 36°46' E 003°06'0 0.0
2014-Jul-24 18:29N 36°46' E 003°06'0 0.0
2014-Jul-24 17:32N 36°46' E 003°06'0 0.1
2014-Jul-24 16:29N 36°46' E 003°06'0 0.0
2014-Jul-24 15:32N 36°46' E 003°06'0 0.1
2014-Jul-24 14:05N 36°46' E 003°06'0 0.1
2014-Jul-24 13:32N 36°46' E 003°06'0 0.0
2014-Jul-24 12:29N 36°46' E 003°06'0 0.0
2014-Jul-24 11:32N 36°46' E 003°06'0 0.0
2014-Jul-24 10:29N 36°46' E 003°06'0 0.0
2014-Jul-24 09:29N 36°46' E 003°06'0 0.0
2014-Jul-24 02:11N 36°46' E 003°06'0 0.0
2014-Jul-24 00:17N 36°46' E 003°06'0 0.0
2014-Jul-23 18:11N 36°46' E 003°06'0 0.0
2014-Jul-23 17:11N 36°46' E 003°06'0 0.0
2014-Jul-23 15:17N 36°46' E 003°06'0 0.0
2014-Jul-23 13:17N 36°46' E 003°06'0 0.0
2014-Jul-23 12:05N 36°46' E 003°06'0 0.0
2014-Jul-23 11:11N 36°46' E 003°06'0 0.0
2014-Jul-23 08:29N 36°46' E 003°06'0 0.0
2014-Jul-23 07:29N 36°46' E 003°06'0 0.0
2014-Jul-23 06:23N 36°46' E 003°06'0 0.0
2014-Jul-23 02:32N 36°46' E 003°06'0 0.0
2014-Jul-23 01:33N 36°46' E 003°06'5 5.4
2014-Jul-23 00:33N 36°51' E 003°03'1312.8
2014-Jul-22 23:34N 36°52' E 002°47'1514.7
2014-Jul-22 22:32N 36°51' E 002°28'1414.1
2014-Jul-22 21:33N 36°50' E 002°11'1414.0
2014-Jul-22 20:33N 36°49' E 001°54'1414.0
2014-Jul-22 19:33N 36°48' E 001°36'1913.6
2014-Jul-22 18:09N 36°46' E 001°13'813.4
2014-Jul-22 17:33N 36°45' E 001°03'1313.4
2014-Jul-22 16:33N 36°39' E 000°48'1413.4
2014-Jul-22 15:32N 36°32' E 000°33'1413.7
2014-Jul-22 14:33N 36°22' E 000°22'1413.9
2014-Jul-22 13:33N 36°12' E 000°10'1413.7
2014-Jul-22 12:32N 36°01' W 000°01'1313.2
2014-Jul-22 11:33N 35°51' W 000°11'4 0.2
2014-Jul-21 13:33N 35°49' W 000°15'139 7.7
2014-Jul-20 19:32N 36°51' E 002°20'1511.5
2014-Jul-20 18:16N 36°51' E 002°38'  
2014-Jul-17 05:03N 36°46' E 003°05'0 0.0
2014-Jul-17 04:30N 36°46' E 003°05'0 0.0
2014-Jul-16 19:15N 36°46' E 003°05'0 0.0
2014-Jul-16 16:25N 36°46' E 003°05'0 0.0
2014-Jul-16 12:33N 36°46' E 003°05'1 1.1
2014-Jul-16 11:33N 36°46' E 003°06'1 1.2
2014-Jul-16 10:31N 36°47' E 003°06'0 0.0
2014-Jul-16 09:28N 36°47' E 003°06'0 0.0
2014-Jul-16 08:28N 36°47' E 003°06'0 0.0
2014-Jul-16 07:28N 36°47' E 003°06'0 0.0
2014-Jul-16 06:28N 36°47' E 003°06'0 0.0
2014-Jul-16 05:28N 36°47' E 003°06'0 0.0
2014-Jul-16 04:28N 36°47' E 003°06'0 0.0
2014-Jul-16 03:31N 36°47' E 003°06'0 0.0
2014-Jul-16 02:04N 36°47' E 003°06'0 0.0
2014-Jul-16 01:28N 36°47' E 003°06'0 0.0
2014-Jul-16 00:28N 36°47' E 003°06'0 0.0
2014-Jul-15 23:22N 36°47' E 003°06'0 0.0
2014-Jul-15 22:22N 36°47' E 003°06'0 0.0
2014-Jul-15 21:31N 36°47' E 003°06'0 0.0
2014-Jul-15 09:29N 36°47' E 003°06'0 0.0
2014-Jul-15 08:17N 36°47' E 003°06'0 0.0
2014-Jul-15 01:26N 36°47' E 003°06'3 2.6
2014-Jul-15 00:15N 36°50' E 003°05'912.2
2014-Jul-14 23:33N 36°53' E 002°55'1413.9
2014-Jul-14 22:33N 36°52' E 002°38'3214.2
2014-Jul-14 20:17N 36°49' E 001°57'1114.5
2014-Jul-14 19:33N 36°48' E 001°44'  
Track history (hours):
 
Tides and Currents Weather Stations Pressure Air Temp Water Temp Dewpoint Dewpoint Depression Visibility Wind Speed Wind Dir Waves Ship Positions

Gaz Palmyra

Last reported at 2014-Jul-24 19:32 UTC. Time now 2014-Jul-24 20:06 UTC.
Position N 36°46' E 003°06'.

Length 137 m; draft 8.1 m.

Type: Ship (hazmat cat C). MMSI: 353247000.

Date/timePositionNaut miles runAvg speedWind from/ knotsBaromVisibWave heightAir tempDewpointWater temp
2014-Jul-24 19:32N 36°46' E 003°06'0 0.0
2014-Jul-24 18:29N 36°46' E 003°06'0 0.0
2014-Jul-24 17:32N 36°46' E 003°06'0 0.1
2014-Jul-24 16:29N 36°46' E 003°06'0 0.0
2014-Jul-24 15:32N 36°46' E 003°06'0 0.1
2014-Jul-24 14:05N 36°46' E 003°06'0 0.1
2014-Jul-24 13:32N 36°46' E 003°06'0 0.0
2014-Jul-24 12:29N 36°46' E 003°06'0 0.0
2014-Jul-24 11:32N 36°46' E 003°06'0 0.0
2014-Jul-24 10:29N 36°46' E 003°06'0 0.0
2014-Jul-24 09:29N 36°46' E 003°06'0 0.0
2014-Jul-24 02:11N 36°46' E 003°06'0 0.0
2014-Jul-24 00:17N 36°46' E 003°06'0 0.0
2014-Jul-23 18:11N 36°46' E 003°06'0 0.0
2014-Jul-23 17:11N 36°46' E 003°06'0 0.0
2014-Jul-23 15:17N 36°46' E 003°06'0 0.0
2014-Jul-23 13:17N 36°46' E 003°06'0 0.0
2014-Jul-23 12:05N 36°46' E 003°06'0 0.0
2014-Jul-23 11:11N 36°46' E 003°06'0 0.0
2014-Jul-23 08:29N 36°46' E 003°06'0 0.0
2014-Jul-23 07:29N 36°46' E 003°06'0 0.0
2014-Jul-23 06:23N 36°46' E 003°06'0 0.0
2014-Jul-23 02:32N 36°46' E 003°06'0 0.0
2014-Jul-23 01:33N 36°46' E 003°06'5 5.4
2014-Jul-23 00:33N 36°51' E 003°03'1312.8
2014-Jul-22 23:34N 36°52' E 002°47'1514.7
2014-Jul-22 22:32N 36°51' E 002°28'1414.1
2014-Jul-22 21:33N 36°50' E 002°11'1414.0
2014-Jul-22 20:33N 36°49' E 001°54'1414.0
2014-Jul-22 19:33N 36°48' E 001°36'1913.6
2014-Jul-22 18:09N 36°46' E 001°13'813.4
2014-Jul-22 17:33N 36°45' E 001°03'1313.4
2014-Jul-22 16:33N 36°39' E 000°48'1413.4
2014-Jul-22 15:32N 36°32' E 000°33'1413.7
2014-Jul-22 14:33N 36°22' E 000°22'1413.9
2014-Jul-22 13:33N 36°12' E 000°10'1413.7
2014-Jul-22 12:32N 36°01' W 000°01'1313.2
2014-Jul-22 11:33N 35°51' W 000°11'4 0.2
2014-Jul-21 13:33N 35°49' W 000°15'139 7.7
2014-Jul-20 19:32N 36°51' E 002°20'1511.5
2014-Jul-20 18:16N 36°51' E 002°38'  
2014-Jul-17 05:03N 36°46' E 003°05'0 0.0
2014-Jul-17 04:30N 36°46' E 003°05'0 0.0
2014-Jul-16 19:15N 36°46' E 003°05'0 0.0
2014-Jul-16 16:25N 36°46' E 003°05'0 0.0
2014-Jul-16 12:33N 36°46' E 003°05'1 1.1
2014-Jul-16 11:33N 36°46' E 003°06'1 1.2
2014-Jul-16 10:31N 36°47' E 003°06'0 0.0
2014-Jul-16 09:28N 36°47' E 003°06'0 0.0
2014-Jul-16 08:28N 36°47' E 003°06'0 0.0
2014-Jul-16 07:28N 36°47' E 003°06'0 0.0
2014-Jul-16 06:28N 36°47' E 003°06'0 0.0
2014-Jul-16 05:28N 36°47' E 003°06'0 0.0
2014-Jul-16 04:28N 36°47' E 003°06'0 0.0
2014-Jul-16 03:31N 36°47' E 003°06'0 0.0
2014-Jul-16 02:04N 36°47' E 003°06'0 0.0
2014-Jul-16 01:28N 36°47' E 003°06'0 0.0
2014-Jul-16 00:28N 36°47' E 003°06'0 0.0
2014-Jul-15 23:22N 36°47' E 003°06'0 0.0
2014-Jul-15 22:22N 36°47' E 003°06'0 0.0
2014-Jul-15 21:31N 36°47' E 003°06'0 0.0
2014-Jul-15 09:29N 36°47' E 003°06'0 0.0
2014-Jul-15 08:17N 36°47' E 003°06'0 0.0
2014-Jul-15 01:26N 36°47' E 003°06'3 2.6
2014-Jul-15 00:15N 36°50' E 003°05'912.2
2014-Jul-14 23:33N 36°53' E 002°55'1413.9
2014-Jul-14 22:33N 36°52' E 002°38'3214.2
2014-Jul-14 20:17N 36°49' E 001°57'1114.5
2014-Jul-14 19:33N 36°48' E 001°44'  

Dump ship's entire track history